createdAt,value
2022-12-31T00:01:52.224Z,75.75
2022-12-31T00:04:19.059Z,69.00
2022-12-31T00:06:47.186Z,68.00
2022-12-31T00:09:14.028Z,76.75
2022-12-31T00:11:40.990Z,70.50
2022-12-31T00:14:08.127Z,74.50
2022-12-31T00:16:38.159Z,68.25
2022-12-31T00:19:07.479Z,80.25
2022-12-31T00:21:35.332Z,79.25
2022-12-31T00:24:04.520Z,77.25
2022-12-31T00:26:33.287Z,73.00
2022-12-31T00:29:01.444Z,68.50
2022-12-31T00:31:31.557Z,69.00
2022-12-31T00:33:59.359Z,77.75
2022-12-31T00:36:31.906Z,68.00
2022-12-31T00:39:00.157Z,68.00
2022-12-31T00:41:28.212Z,75.25
2022-12-31T00:43:55.737Z,66.00
2022-12-31T00:46:22.839Z,77.25
2022-12-31T00:48:50.302Z,73.33
2022-12-31T00:51:20.996Z,78.00
2022-12-31T00:53:47.827Z,79.25
2022-12-31T00:56:18.673Z,77.75
2022-12-31T00:58:46.143Z,78.75
2022-12-31T01:01:20.465Z,75.50
2022-12-31T01:03:48.922Z,60.25
2022-12-31T01:06:16.229Z,77.75
2022-12-31T01:08:43.193Z,69.75
2022-12-31T01:11:22.743Z,78.25
2022-12-31T01:14:13.175Z,67.75
2022-12-31T01:16:52.234Z,72.00
2022-12-31T01:19:25.771Z,69.25
2022-12-31T01:21:53.324Z,71.00
2022-12-31T01:24:20.880Z,70.00
2022-12-31T01:26:50.963Z,70.00
2022-12-31T01:29:18.050Z,69.00
2022-12-31T01:31:44.892Z,79.75
2022-12-31T01:34:11.911Z,77.25
2022-12-31T01:36:39.140Z,68.75
2022-12-31T01:39:08.321Z,70.25
2022-12-31T01:41:38.063Z,71.50
2022-12-31T01:44:13.808Z,68.75
2022-12-31T01:46:42.452Z,71.75
2022-12-31T01:49:40.129Z,75.00
2022-12-31T01:52:11.073Z,68.25
2022-12-31T01:54:43.362Z,73.75
2022-12-31T01:57:12.316Z,69.25
2022-12-31T01:59:39.259Z,68.00
2022-12-31T02:02:06.483Z,71.00
2022-12-31T02:04:33.454Z,66.25
2022-12-31T02:07:03.632Z,75.25
2022-12-31T02:09:32.459Z,77.00
2022-12-31T02:11:59.941Z,79.50
2022-12-31T02:14:33.910Z,68.75
2022-12-31T02:17:09.806Z,77.00
2022-12-31T02:19:54.823Z,77.75
2022-12-31T02:22:44.209Z,71.67
2022-12-31T02:25:31.661Z,73.25
2022-12-31T02:28:13.360Z,78.25
2022-12-31T02:30:42.554Z,79.25
2022-12-31T02:33:33.175Z,70.75
2022-12-31T02:36:06.185Z,79.25
2022-12-31T02:38:39.029Z,78.00
2022-12-31T02:41:05.858Z,81.00
2022-12-31T02:43:32.639Z,76.75
2022-12-31T02:46:19.643Z,69.50
2022-12-31T02:49:01.786Z,80.00
2022-12-31T02:51:46.002Z,80.25
2022-12-31T02:54:33.778Z,72.25
2022-12-31T02:57:12.217Z,78.25
2022-12-31T03:00:11.819Z,69.25
2022-12-31T03:02:43.658Z,69.00
2022-12-31T03:05:13.060Z,68.75
2022-12-31T03:07:41.792Z,78.25
2022-12-31T03:10:09.232Z,70.00
2022-12-31T03:12:48.948Z,68.75
2022-12-31T03:15:33.240Z,78.25
2022-12-31T03:18:04.709Z,69.50
2022-12-31T03:20:57.975Z,76.25
2022-12-31T03:23:31.482Z,69.50
2022-12-31T03:25:59.916Z,78.25
2022-12-31T03:28:30.988Z,68.25
2022-12-31T03:31:01.632Z,70.00
2022-12-31T03:33:40.718Z,68.50
2022-12-31T03:36:16.568Z,74.00
2022-12-31T03:38:44.745Z,71.33
2022-12-31T03:41:13.268Z,65.75
2022-12-31T03:43:40.025Z,71.00
2022-12-31T03:46:08.985Z,80.25
2022-12-31T03:48:35.828Z,79.50
2022-12-31T03:51:05.006Z,80.25
2022-12-31T03:53:32.206Z,67.75
2022-12-31T03:55:58.972Z,67.25
2022-12-31T03:58:25.830Z,71.75
2022-12-31T04:00:52.740Z,69.25
2022-12-31T04:03:19.683Z,68.00
2022-12-31T04:05:53.323Z,69.25
2022-12-31T04:08:20.086Z,70.00
2022-12-31T04:10:46.870Z,78.50
2022-12-31T04:13:13.653Z,78.25
2022-12-31T04:15:40.551Z,70.25
2022-12-31T04:18:07.325Z,69.00
2022-12-31T04:20:34.251Z,77.00
2022-12-31T04:23:01.054Z,77.00
2022-12-31T04:25:27.829Z,77.25
2022-12-31T04:27:54.653Z,74.25
2022-12-31T04:30:21.444Z,74.25
2022-12-31T04:32:48.246Z,71.00
2022-12-31T04:35:15.082Z,70.25
2022-12-31T04:37:41.872Z,78.00
2022-12-31T04:40:09.555Z,80.25
2022-12-31T04:42:36.769Z,78.25
2022-12-31T04:45:05.017Z,79.50
2022-12-31T04:47:32.010Z,69.00
2022-12-31T04:49:58.906Z,78.25
2022-12-31T04:52:25.865Z,67.50
2022-12-31T04:54:52.639Z,76.25
2022-12-31T04:57:19.433Z,75.00
2022-12-31T04:59:46.219Z,69.25
2022-12-31T05:02:13.150Z,65.00
2022-12-31T05:04:40.035Z,69.25
2022-12-31T05:07:06.913Z,71.00
2022-12-31T05:09:33.758Z,69.75
2022-12-31T05:12:00.697Z,70.25
2022-12-31T05:14:27.549Z,79.00
2022-12-31T05:16:54.672Z,80.00
2022-12-31T05:19:21.544Z,67.75
2022-12-31T05:22:08.969Z,73.33
2022-12-31T05:24:36.206Z,69.00
2022-12-31T05:27:03.512Z,78.50
2022-12-31T05:29:35.580Z,75.75
2022-12-31T05:32:02.381Z,75.25
2022-12-31T05:34:30.558Z,68.25
2022-12-31T05:36:57.368Z,78.25
2022-12-31T05:39:24.131Z,80.00
2022-12-31T05:41:51.460Z,68.25
2022-12-31T05:44:18.308Z,80.75
2022-12-31T05:46:45.085Z,79.00
2022-12-31T05:49:11.856Z,68.00
2022-12-31T05:51:38.777Z,75.75
2022-12-31T05:54:05.719Z,69.25
2022-12-31T05:56:32.478Z,70.25
2022-12-31T05:59:00.726Z,80.25
2022-12-31T06:01:27.566Z,67.50
2022-12-31T06:03:54.495Z,68.00
2022-12-31T06:06:21.335Z,78.75
2022-12-31T06:08:51.715Z,69.25
2022-12-31T06:11:18.543Z,70.50
2022-12-31T06:13:45.366Z,78.50
2022-12-31T06:16:12.328Z,79.50
2022-12-31T06:18:39.470Z,70.75
2022-12-31T06:21:06.624Z,68.75
2022-12-31T06:23:33.411Z,77.00
2022-12-31T06:26:04.596Z,79.00
2022-12-31T06:28:31.654Z,66.00
2022-12-31T06:31:07.079Z,78.50
2022-12-31T06:33:35.083Z,80.50
2022-12-31T06:36:04.480Z,80.00
2022-12-31T06:38:33.678Z,81.00
2022-12-31T06:41:08.784Z,70.00
2022-12-31T06:43:36.504Z,82.00
2022-12-31T06:46:05.333Z,73.00
2022-12-31T06:48:32.633Z,72.00
2022-12-31T06:51:19.893Z,69.25
2022-12-31T06:53:48.642Z,73.25
2022-12-31T06:56:33.970Z,79.00
2022-12-31T06:59:02.875Z,76.00
2022-12-31T07:02:06.529Z,82.25
2022-12-31T07:04:51.421Z,68.00
2022-12-31T07:07:23.962Z,79.75
2022-12-31T07:10:17.791Z,81.00
2022-12-31T07:12:57.629Z,67.50
2022-12-31T07:15:44.895Z,80.00
2022-12-31T07:18:27.208Z,71.75
2022-12-31T07:20:54.271Z,71.75
2022-12-31T07:23:21.391Z,74.33
2022-12-31T07:26:00.294Z,80.00
2022-12-31T07:29:05.330Z,69.00
2022-12-31T07:32:06.008Z,80.00
2022-12-31T07:34:54.419Z,68.75
2022-12-31T07:37:39.637Z,77.25
2022-12-31T07:40:15.057Z,70.25
2022-12-31T07:43:24.198Z,70.00
2022-12-31T07:46:16.927Z,70.75
2022-12-31T07:48:44.354Z,75.25
2022-12-31T07:51:12.011Z,66.50
2022-12-31T07:53:39.522Z,76.00
2022-12-31T07:56:08.941Z,69.00
2022-12-31T07:58:57.781Z,69.00
2022-12-31T08:01:41.657Z,73.00
2022-12-31T08:04:28.143Z,78.25
2022-12-31T08:07:26.048Z,82.50
2022-12-31T08:10:17.276Z,80.25
2022-12-31T08:12:47.087Z,73.25
2022-12-31T08:15:16.010Z,75.25
2022-12-31T08:17:43.624Z,67.25
2022-12-31T08:20:15.974Z,78.25
2022-12-31T08:22:45.476Z,81.00
2022-12-31T08:25:53.325Z,75.25
2022-12-31T08:28:42.808Z,79.75
2022-12-31T08:31:24.715Z,74.00
2022-12-31T08:34:12.221Z,74.00
2022-12-31T08:37:06.592Z,68.75
2022-12-31T08:40:16.617Z,79.75
2022-12-31T08:43:09.381Z,70.00
2022-12-31T08:45:41.918Z,70.25
2022-12-31T08:48:27.207Z,72.25
2022-12-31T08:50:54.860Z,82.75
2022-12-31T08:53:21.889Z,82.25
2022-12-31T08:55:52.928Z,80.50
2022-12-31T08:58:32.460Z,82.00
2022-12-31T09:00:59.710Z,78.75
2022-12-31T09:03:45.082Z,82.00
2022-12-31T09:06:29.554Z,79.50
2022-12-31T09:09:13.676Z,80.00
2022-12-31T09:12:18.290Z,72.75
2022-12-31T09:15:14.982Z,82.75
2022-12-31T09:17:50.571Z,71.50
2022-12-31T09:20:44.731Z,76.00
2022-12-31T09:23:13.333Z,70.00
2022-12-31T09:26:14.413Z,68.00
2022-12-31T09:29:18.535Z,79.25
2022-12-31T09:32:00.122Z,77.50
2022-12-31T09:34:45.380Z,68.50
2022-12-31T09:37:38.149Z,67.50
2022-12-31T09:40:28.696Z,68.75
2022-12-31T09:43:33.312Z,71.50
2022-12-31T09:46:42.657Z,75.75
2022-12-31T09:49:24.641Z,80.50
2022-12-31T09:52:12.999Z,72.25
2022-12-31T09:55:07.420Z,70.25
2022-12-31T09:58:00.015Z,80.00
2022-12-31T10:01:03.938Z,81.75
2022-12-31T10:04:07.941Z,73.75
2022-12-31T10:07:00.697Z,79.50
2022-12-31T10:09:27.398Z,76.00
2022-12-31T10:11:56.764Z,66.25
2022-12-31T10:14:26.379Z,72.75
2022-12-31T10:17:13.919Z,73.00
2022-12-31T10:19:55.517Z,80.00
2022-12-31T10:22:36.905Z,79.75
2022-12-31T10:25:41.311Z,76.25
2022-12-31T10:28:23.005Z,83.00
2022-12-31T10:31:20.953Z,73.75
2022-12-31T10:34:17.287Z,77.25
2022-12-31T10:37:17.864Z,73.00
2022-12-31T10:40:03.317Z,75.00
2022-12-31T10:42:48.638Z,79.00
2022-12-31T10:45:21.107Z,82.50
2022-12-31T10:47:50.898Z,80.75
2022-12-31T10:50:39.562Z,71.25
2022-12-31T10:53:29.370Z,79.50
2022-12-31T10:56:14.532Z,71.25
2022-12-31T10:58:53.290Z,81.00
2022-12-31T11:01:35.275Z,74.25
2022-12-31T11:04:23.152Z,75.25
2022-12-31T11:07:16.994Z,71.75
2022-12-31T11:09:55.847Z,67.50
2022-12-31T11:12:41.147Z,80.00
2022-12-31T11:15:42.882Z,67.50
2022-12-31T11:18:27.271Z,66.50
2022-12-31T11:21:09.082Z,69.00
2022-12-31T11:23:44.938Z,73.75
2022-12-31T11:26:17.626Z,78.00
2022-12-31T11:28:44.565Z,77.00
2022-12-31T11:31:51.015Z,79.00
2022-12-31T11:34:24.481Z,81.25
2022-12-31T11:37:29.259Z,74.25
2022-12-31T11:39:58.682Z,70.00
2022-12-31T11:42:55.549Z,71.75
2022-12-31T11:45:50.231Z,68.25
2022-12-31T11:48:31.778Z,73.25
2022-12-31T11:51:01.750Z,78.00
2022-12-31T11:53:48.076Z,77.25
2022-12-31T11:56:21.253Z,69.00
2022-12-31T11:58:57.458Z,68.00
2022-12-31T12:01:32.147Z,70.00
2022-12-31T12:04:02.373Z,69.25
2022-12-31T12:06:32.268Z,66.25
2022-12-31T12:09:10.613Z,65.00
2022-12-31T12:11:40.940Z,80.00
2022-12-31T12:14:31.083Z,73.75
2022-12-31T12:17:04.356Z,75.00
2022-12-31T12:19:33.177Z,68.75
2022-12-31T12:22:11.156Z,74.50
2022-12-31T12:24:38.017Z,68.50
2022-12-31T12:27:05.159Z,69.75
2022-12-31T12:29:35.717Z,80.00
2022-12-31T12:32:25.087Z,68.75
2022-12-31T12:34:53.119Z,76.25
2022-12-31T12:37:34.511Z,78.50
2022-12-31T12:40:09.553Z,80.00
2022-12-31T12:42:36.376Z,77.50
2022-12-31T12:45:07.288Z,78.50
2022-12-31T12:47:35.111Z,70.00
2022-12-31T12:50:03.218Z,80.25
2022-12-31T12:52:29.952Z,78.25
2022-12-31T12:55:02.531Z,72.75
2022-12-31T12:57:45.415Z,69.25
2022-12-31T13:00:41.750Z,77.25
2022-12-31T13:03:23.049Z,70.25
2022-12-31T13:06:15.598Z,79.25
2022-12-31T13:08:48.137Z,74.25
2022-12-31T13:11:51.767Z,68.00
2022-12-31T13:14:30.896Z,78.50
2022-12-31T13:17:17.873Z,76.25
2022-12-31T13:20:02.445Z,69.25
2022-12-31T13:22:44.252Z,77.00
2022-12-31T13:25:27.839Z,69.25
2022-12-31T13:28:00.186Z,80.00
2022-12-31T13:30:38.117Z,80.75
2022-12-31T13:33:16.345Z,70.50
2022-12-31T13:35:52.357Z,80.25
2022-12-31T13:38:40.994Z,70.75
2022-12-31T13:41:19.713Z,70.00
2022-12-31T13:43:54.262Z,69.00
2022-12-31T13:46:44.995Z,68.00
2022-12-31T13:49:26.691Z,78.00
2022-12-31T13:52:03.913Z,74.75
2022-12-31T13:54:54.159Z,70.25
2022-12-31T13:57:41.157Z,80.75
2022-12-31T14:00:23.910Z,78.50
2022-12-31T14:02:59.633Z,77.25
2022-12-31T14:05:35.372Z,71.75
2022-12-31T14:08:05.047Z,70.25
2022-12-31T14:10:40.316Z,69.25
2022-12-31T14:13:34.380Z,69.25
2022-12-31T14:16:01.668Z,81.00
2022-12-31T14:18:44.924Z,81.00
2022-12-31T14:21:19.826Z,70.25
2022-12-31T14:23:55.704Z,70.00
2022-12-31T14:26:31.310Z,77.75
2022-12-31T14:29:03.030Z,126.75
2022-12-31T14:31:48.132Z,244.67
2022-12-31T14:34:36.488Z,406.50
2022-12-31T14:37:21.844Z,276.75
2022-12-31T14:40:15.740Z,207.75
2022-12-31T14:43:10.718Z,171.25
2022-12-31T14:46:04.299Z,154.00
2022-12-31T14:48:48.346Z,147.00
2022-12-31T14:51:15.815Z,149.50
2022-12-31T14:53:53.627Z,148.00
2022-12-31T14:56:32.466Z,138.75
2022-12-31T14:59:04.001Z,144.00
2022-12-31T15:01:30.946Z,131.50
2022-12-31T15:03:58.484Z,127.25
2022-12-31T15:06:40.376Z,128.75
2022-12-31T15:09:38.048Z,117.00
2022-12-31T15:12:51.528Z,119.25
2022-12-31T15:15:33.275Z,118.75
2022-12-31T15:18:19.006Z,110.75
2022-12-31T15:20:57.890Z,110.00
2022-12-31T15:23:33.072Z,103.00
2022-12-31T15:26:01.719Z,104.75
2022-12-31T15:28:40.992Z,103.25
2022-12-31T15:31:18.088Z,98.50
2022-12-31T15:34:04.624Z,103.25
2022-12-31T15:36:32.935Z,100.00
2022-12-31T15:39:11.836Z,100.50
2022-12-31T15:42:18.743Z,97.50
2022-12-31T15:44:44.112Z,94.67
2022-12-31T15:47:22.362Z,98.00
2022-12-31T15:49:50.986Z,98.00
2022-12-31T15:52:25.545Z,97.67
2022-12-31T15:54:57.256Z,93.50
2022-12-31T15:57:38.225Z,96.75
2022-12-31T16:00:14.873Z,95.33
2022-12-31T16:02:43.293Z,99.25
2022-12-31T16:05:22.596Z,88.75
2022-12-31T16:07:56.566Z,96.75
2022-12-31T16:10:31.992Z,91.00
2022-12-31T16:13:00.040Z,87.00
2022-12-31T16:15:30.470Z,90.00
2022-12-31T16:18:00.389Z,90.00
2022-12-31T16:20:33.702Z,87.00
2022-12-31T16:23:03.251Z,86.67
2022-12-31T16:25:33.677Z,93.50
2022-12-31T16:28:02.823Z,85.33
2022-12-31T16:30:32.317Z,94.00
2022-12-31T16:33:01.618Z,89.00
2022-12-31T16:35:34.319Z,91.75
2022-12-31T16:38:12.684Z,83.25
2022-12-31T16:40:42.657Z,87.00
2022-12-31T16:43:27.466Z,87.25
2022-12-31T16:46:07.248Z,92.75
2022-12-31T16:48:34.469Z,80.75
2022-12-31T16:51:01.472Z,84.50
2022-12-31T16:53:30.629Z,84.50
2022-12-31T16:56:09.184Z,84.75
2022-12-31T16:58:45.405Z,80.00
2022-12-31T17:01:23.743Z,90.50
2022-12-31T17:03:53.661Z,87.00
2022-12-31T17:06:23.325Z,88.25
2022-12-31T17:08:56.274Z,90.75
2022-12-31T17:11:32.299Z,90.00
2022-12-31T17:14:13.531Z,82.50
2022-12-31T17:17:02.614Z,82.50
2022-12-31T17:19:42.436Z,81.00
2022-12-31T17:22:32.968Z,85.00
2022-12-31T17:25:33.390Z,85.67
2022-12-31T17:28:07.865Z,87.50
2022-12-31T17:30:36.463Z,87.25
2022-12-31T17:33:04.583Z,85.00
2022-12-31T17:35:52.153Z,80.75
2022-12-31T17:38:21.764Z,89.75
2022-12-31T17:41:14.265Z,85.00
2022-12-31T17:43:42.645Z,78.50
2022-12-31T17:46:12.959Z,76.25
2022-12-31T17:48:41.054Z,87.75
2022-12-31T17:51:08.190Z,90.00
2022-12-31T17:53:35.341Z,78.75
2022-12-31T17:56:05.577Z,77.00
2022-12-31T17:58:42.600Z,87.25
2022-12-31T18:01:10.025Z,78.00
2022-12-31T18:03:36.931Z,79.50
2022-12-31T18:06:05.488Z,85.25
2022-12-31T18:08:32.334Z,87.50
2022-12-31T18:10:59.199Z,77.25
2022-12-31T18:13:27.778Z,81.25
2022-12-31T18:15:55.519Z,76.25
2022-12-31T18:18:25.850Z,77.25
2022-12-31T18:20:56.583Z,77.25
2022-12-31T18:23:27.803Z,82.25
2022-12-31T18:25:55.055Z,78.00
2022-12-31T18:28:21.957Z,81.25
2022-12-31T18:30:49.574Z,84.00
2022-12-31T18:33:22.297Z,84.00
2022-12-31T18:36:09.867Z,78.00
2022-12-31T18:38:36.942Z,78.75
2022-12-31T18:41:04.352Z,87.00
2022-12-31T18:43:33.633Z,89.25
2022-12-31T18:46:00.534Z,87.00
2022-12-31T18:48:27.378Z,90.50
2022-12-31T18:50:54.173Z,89.75
2022-12-31T18:53:23.105Z,85.67
2022-12-31T18:55:57.452Z,87.50
2022-12-31T18:58:24.731Z,89.25
2022-12-31T19:00:52.384Z,87.25
2022-12-31T19:03:22.502Z,88.75
2022-12-31T19:05:50.964Z,85.67
2022-12-31T19:08:22.487Z,82.25
2022-12-31T19:10:51.701Z,83.33
